Caledonia, Ohio
Current Conditions -  °F | °C
As of 7:53 AM on Wednesday 22 Oct 2014 (Local Time) from KMNN Reporting Station
Haze Haze  
Wind Chill: 37°   Ceiling: 1700
Heat Index: 43°   Visibility: 6mi
Dew Point: 40°   Wind: 10mph
Humidity: 89%   Direction: 320°NW
Pressure: 30.24"   Gusts: NA
Location:  40.64°N, 82.97°W
Report Text: KMNN 221153Z AUTO 32009KT 6SM BR FEW011 BKN017 OVC028 06/04 A3024 RMK AO2 SLP247 70001 T00610044 10067 20061 51011 TSNO
Loading
Personal Weather Stations






























Interactive Weather Map
Tropical Storm Tracking
New forecast layout! Learn more

10-Day Weather Forecast

Advertisements
Track Severe Weather on mobile